createdAt,value
2017-11-04T00:00:57.083Z,8.60
2017-11-04T00:03:24.604Z,8.64
2017-11-04T00:05:52.128Z,8.93
2017-11-04T00:08:19.687Z,8.95
2017-11-04T00:10:47.232Z,8.83
2017-11-04T00:13:14.892Z,8.85
2017-11-04T00:15:42.539Z,8.92
2017-11-04T00:18:10.068Z,8.90
2017-11-04T00:20:37.700Z,8.85
2017-11-04T00:23:05.337Z,8.65
2017-11-04T00:25:32.893Z,8.60
2017-11-04T00:28:00.453Z,8.84
2017-11-04T00:30:28.318Z,9.00
2017-11-04T00:32:56.802Z,9.08
2017-11-04T00:35:24.340Z,9.13
2017-11-04T00:37:52.172Z,9.09
2017-11-04T01:03:06.626Z,8.85
2017-11-04T01:05:34.595Z,8.60
2017-11-04T01:08:02.154Z,8.83
2017-11-04T01:10:29.940Z,8.66
2017-11-04T01:12:57.456Z,8.63
2017-11-04T01:15:24.974Z,8.71
2017-11-04T01:17:52.697Z,8.66
2017-11-04T01:20:20.220Z,8.73
2017-11-04T01:22:49.044Z,8.71
2017-11-04T01:25:17.013Z,8.75
2017-11-04T01:27:44.585Z,8.61
2017-11-04T01:30:12.131Z,8.80
2017-11-04T01:32:39.895Z,8.53
2017-11-04T01:35:07.458Z,8.73
2017-11-04T01:37:35.016Z,8.82
2017-11-04T01:40:02.769Z,8.70
2017-11-04T01:42:30.340Z,8.75
2017-11-04T01:44:57.898Z,8.58
2017-11-04T01:47:25.635Z,8.60
2017-11-04T01:49:53.159Z,8.50
2017-11-04T01:52:20.679Z,8.33
2017-11-04T01:54:48.519Z,8.25
2017-11-04T01:57:16.035Z,8.48
2017-11-04T01:59:43.559Z,8.61
2017-11-04T02:02:11.410Z,8.51
2017-11-04T02:04:38.983Z,8.60
2017-11-04T02:07:06.543Z,8.92
2017-11-04T02:09:34.303Z,8.86
2017-11-04T02:12:01.872Z,8.88
2017-11-04T02:14:29.424Z,8.76
2017-11-04T02:16:57.171Z,9.03
2017-11-04T02:19:24.693Z,9.02
2017-11-04T02:21:52.215Z,9.01
2017-11-04T02:24:19.969Z,8.87
2017-11-04T02:26:47.528Z,8.95
2017-11-04T02:29:15.086Z,9.06
2017-11-04T02:31:42.954Z,9.22
2017-11-04T02:34:10.499Z,9.25
2017-11-04T02:36:38.074Z,9.24
2017-11-04T02:39:05.834Z,9.47
2017-11-04T02:41:33.394Z,9.29
2017-11-04T02:44:00.953Z,9.27
2017-11-04T02:46:28.921Z,9.25
2017-11-04T02:48:56.482Z,9.37
2017-11-04T02:51:24.041Z,9.13
2017-11-04T02:53:51.783Z,8.92
2017-11-04T02:56:19.301Z,9.02
2017-11-04T02:58:46.819Z,9.32
2017-11-04T03:01:14.584Z,9.38
2017-11-04T03:03:42.141Z,9.53
2017-11-04T03:06:09.702Z,9.54
2017-11-04T03:08:37.443Z,9.52
2017-11-04T03:11:04.962Z,9.43
2017-11-04T03:13:32.491Z,9.52
2017-11-04T03:16:00.355Z,9.40
2017-11-04T03:18:27.906Z,9.51
2017-11-04T03:20:55.467Z,9.47
2017-11-04T03:23:23.223Z,9.55
2017-11-04T03:25:50.789Z,9.67
2017-11-04T03:28:18.344Z,9.91
2017-11-04T03:30:46.010Z,9.86
2017-11-04T03:33:13.571Z,10.00
2017-11-04T03:35:41.128Z,9.89
2017-11-04T03:38:08.996Z,9.81
2017-11-04T03:40:36.555Z,9.85
2017-11-04T03:43:04.070Z,9.84
2017-11-04T03:45:31.755Z,9.87
2017-11-04T03:47:59.272Z,9.70
2017-11-04T03:50:26.802Z,9.60
2017-11-04T03:52:54.656Z,9.87
2017-11-04T03:55:22.214Z,10.20
2017-11-04T03:57:50.526Z,10.27
2017-11-04T04:00:18.244Z,10.41
2017-11-04T04:02:45.766Z,10.57
2017-11-04T04:05:13.297Z,10.51
2017-11-04T04:07:41.227Z,10.72
2017-11-04T04:10:08.747Z,10.93
2017-11-04T04:12:36.375Z,11.00
2017-11-04T04:15:04.330Z,10.84
2017-11-04T04:17:31.862Z,10.70
2017-11-04T04:19:59.383Z,10.70
2017-11-04T04:22:27.208Z,10.52
2017-11-04T04:24:54.726Z,10.57
2017-11-04T04:27:22.254Z,10.74
2017-11-04T04:29:50.128Z,10.47
2017-11-04T04:32:17.668Z,10.42
2017-11-04T04:34:45.208Z,10.50
2017-11-04T04:37:12.756Z,10.46
2017-11-04T04:39:40.328Z,10.69
2017-11-04T04:42:07.854Z,10.51
2017-11-04T04:44:35.492Z,10.61
2017-11-04T04:47:03.023Z,10.75
2017-11-04T04:49:30.562Z,10.64
2017-11-04T04:51:58.349Z,10.71
2017-11-04T04:54:25.888Z,10.72
2017-11-04T04:56:53.469Z,10.82
2017-11-04T04:59:21.209Z,10.89
2017-11-04T05:01:48.768Z,10.97
2017-11-04T05:04:16.329Z,10.99
2017-11-04T05:06:44.095Z,11.08
2017-11-04T05:09:11.623Z,11.07
2017-11-04T05:11:39.213Z,11.07
2017-11-04T05:14:07.981Z,10.92
2017-11-04T05:16:35.574Z,10.92
2017-11-04T05:19:03.116Z,11.25
2017-11-04T05:21:31.596Z,11.16
2017-11-04T05:24:00.073Z,11.49
2017-11-04T05:26:27.637Z,11.33
2017-11-04T05:28:55.203Z,11.31
2017-11-04T05:31:22.730Z,11.38
2017-11-04T05:33:50.271Z,11.44
2017-11-04T05:36:18.179Z,11.34
2017-11-04T05:38:45.738Z,11.10
2017-11-04T05:41:13.299Z,11.04
2017-11-04T05:43:40.960Z,10.94
2017-11-04T05:46:08.517Z,10.69
2017-11-04T05:48:36.081Z,10.76
2017-11-04T05:51:03.740Z,10.54
2017-11-04T05:53:31.298Z,10.73
2017-11-04T05:55:59.267Z,10.74
2017-11-04T05:58:26.885Z,11.00
2017-11-04T06:00:54.407Z,11.02
2017-11-04T06:03:21.928Z,10.84
2017-11-04T06:05:49.615Z,10.99
2017-11-04T06:08:17.173Z,11.22
2017-11-04T06:10:44.723Z,11.29
2017-11-04T06:13:12.590Z,11.24
2017-11-04T06:15:40.152Z,11.20
2017-11-04T06:18:07.709Z,11.09
2017-11-04T06:20:35.454Z,11.12
2017-11-04T06:23:02.975Z,11.31
2017-11-04T06:25:30.501Z,11.20
2017-11-04T06:27:58.253Z,11.40
2017-11-04T06:30:25.810Z,11.54
2017-11-04T06:32:53.369Z,11.38
2017-11-04T06:35:21.119Z,11.25
2017-11-04T06:37:48.694Z,11.57
2017-11-04T06:40:16.220Z,11.44
2017-11-04T06:42:44.003Z,11.48
2017-11-04T06:45:11.577Z,11.54
2017-11-04T06:47:39.141Z,11.56
2017-11-04T06:50:07.104Z,11.61
2017-11-04T06:52:34.662Z,11.34
2017-11-04T06:55:02.186Z,11.25
2017-11-04T06:57:30.089Z,11.19
2017-11-04T06:59:57.647Z,11.18
2017-11-04T07:02:25.236Z,11.19
2017-11-04T07:04:52.804Z,11.37
2017-11-04T07:07:20.344Z,11.45
2017-11-04T07:09:47.939Z,11.43
2017-11-04T07:12:15.648Z,11.52
2017-11-04T07:14:43.206Z,11.73
2017-11-04T07:17:10.722Z,11.83
2017-11-04T07:19:38.510Z,12.05
2017-11-04T07:22:06.039Z,11.92
2017-11-04T07:24:33.570Z,11.97
2017-11-04T07:27:01.290Z,11.99
2017-11-04T07:29:28.868Z,12.16
2017-11-04T07:31:56.426Z,12.15
2017-11-04T07:34:24.191Z,12.22
2017-11-04T07:36:51.750Z,12.07
2017-11-04T07:39:19.283Z,12.22
2017-11-04T07:41:47.880Z,12.19
2017-11-04T07:44:15.469Z,12.44
2017-11-04T07:46:43.524Z,12.38
2017-11-04T07:49:11.241Z,12.51
2017-11-04T07:51:39.072Z,12.69
2017-11-04T07:54:07.428Z,12.52
2017-11-04T07:56:36.344Z,12.70
2017-11-04T07:59:03.879Z,12.80
2017-11-04T08:01:31.426Z,12.80
2017-11-04T08:03:59.287Z,12.69
2017-11-04T08:06:26.820Z,13.21
2017-11-04T08:08:54.348Z,13.27
2017-11-04T08:11:22.193Z,12.98
2017-11-04T08:13:49.732Z,13.02
2017-11-04T08:16:17.321Z,12.92
2017-11-04T08:18:45.012Z,12.92
2017-11-04T08:21:12.568Z,13.12
2017-11-04T08:23:40.119Z,13.07
2017-11-04T08:26:07.864Z,13.19
2017-11-04T08:28:35.406Z,13.41
2017-11-04T08:31:02.965Z,13.69
2017-11-04T08:33:30.715Z,13.67
2017-11-04T08:35:58.241Z,14.00
2017-11-04T08:38:25.764Z,14.16
2017-11-04T08:40:53.332Z,14.62
2017-11-04T08:43:20.884Z,14.96
2017-11-04T08:45:48.411Z,15.44
2017-11-04T08:48:16.083Z,15.69
2017-11-04T08:50:43.659Z,15.65
2017-11-04T08:53:11.192Z,15.70
2017-11-04T08:55:38.947Z,15.51
2017-11-04T08:58:06.477Z,15.63
2017-11-04T09:00:34.008Z,15.22
2017-11-04T09:03:01.727Z,15.13
2017-11-04T09:05:29.366Z,15.18
2017-11-04T09:07:56.893Z,15.61
2017-11-04T09:10:24.918Z,15.72
2017-11-04T09:12:52.597Z,17.10
2017-11-04T09:15:20.156Z,17.55
2017-11-04T09:17:47.875Z,18.16
2017-11-04T09:20:15.405Z,18.62
2017-11-04T09:22:42.928Z,18.61
2017-11-04T09:25:10.798Z,19.14
2017-11-04T09:27:38.328Z,20.76
2017-11-04T09:30:05.859Z,21.84
2017-11-04T09:32:33.584Z,22.10
2017-11-04T09:35:01.140Z,23.21
2017-11-04T09:37:28.659Z,22.93
2017-11-04T09:39:56.207Z,22.69
2017-11-04T09:42:23.735Z,21.57
2017-11-04T09:44:51.316Z,21.28
2017-11-04T09:47:19.141Z,22.00
2017-11-04T09:49:47.109Z,21.74
2017-11-04T09:52:15.578Z,22.59
2017-11-04T09:54:43.255Z,22.52
2017-11-04T09:57:10.810Z,22.69
2017-11-04T09:59:38.370Z,23.33
2017-11-04T10:02:05.972Z,23.05
2017-11-04T10:04:34.103Z,22.84
2017-11-04T10:07:01.663Z,23.73
2017-11-04T10:09:29.639Z,23.47
2017-11-04T10:11:57.192Z,24.67
2017-11-04T10:14:24.748Z,25.61
2017-11-04T10:16:52.728Z,25.84
2017-11-04T10:19:20.306Z,26.17
2017-11-04T10:21:48.348Z,25.74
2017-11-04T10:24:16.929Z,26.74
2017-11-04T10:26:44.608Z,28.00
2017-11-04T10:29:12.202Z,27.58
2017-11-04T10:31:39.880Z,25.70
2017-11-04T10:34:07.476Z,25.42
2017-11-04T10:36:35.076Z,24.53
2017-11-04T10:39:03.515Z,25.64
2017-11-04T10:41:31.180Z,23.05
2017-11-04T10:43:58.840Z,23.26
2017-11-04T10:46:26.588Z,23.72
2017-11-04T10:48:54.148Z,25.72
2017-11-04T10:51:21.764Z,26.58
2017-11-04T10:53:49.688Z,25.52
2017-11-04T10:56:17.448Z,22.83
2017-11-04T10:58:45.113Z,22.42
2017-11-04T11:01:12.775Z,21.98
2017-11-04T11:03:40.436Z,22.15
2017-11-04T11:06:07.963Z,22.68
2017-11-04T11:08:35.862Z,23.13
2017-11-04T11:11:03.451Z,23.38
2017-11-04T11:13:31.042Z,24.04
2017-11-04T11:15:58.641Z,25.68
2017-11-04T11:18:26.199Z,26.10
2017-11-04T11:20:54.271Z,25.37
2017-11-04T11:23:22.140Z,24.33
2017-11-04T11:25:49.750Z,23.69
2017-11-04T11:28:17.449Z,23.75
2017-11-04T11:30:45.633Z,23.56
2017-11-04T11:33:13.216Z,23.80
2017-11-04T11:35:40.862Z,24.17
2017-11-04T11:38:08.620Z,25.22
2017-11-04T11:40:36.386Z,26.14
2017-11-04T11:43:04.174Z,25.62
2017-11-04T11:45:31.910Z,25.30
2017-11-04T11:47:59.558Z,25.21
2017-11-04T11:50:27.226Z,25.24
2017-11-04T11:52:54.929Z,25.66
2017-11-04T11:55:22.669Z,26.27
2017-11-04T11:57:50.220Z,26.19
2017-11-04T12:00:17.980Z,28.26
2017-11-04T12:02:45.541Z,29.46
2017-11-04T12:05:13.218Z,28.32
2017-11-04T12:07:41.056Z,26.25
2017-11-04T12:10:08.599Z,24.40
2017-11-04T12:12:36.218Z,23.59
2017-11-04T12:15:04.156Z,22.18
2017-11-04T12:17:31.803Z,22.16
2017-11-04T12:19:59.479Z,21.76
2017-11-04T12:22:27.043Z,21.67
2017-11-04T12:24:54.567Z,21.44
2017-11-04T12:27:22.118Z,21.55
2017-11-04T12:29:49.817Z,21.53
2017-11-04T12:32:17.336Z,20.95
2017-11-04T12:34:44.935Z,21.14
2017-11-04T12:37:12.914Z,21.25
2017-11-04T12:39:40.769Z,21.60
2017-11-04T12:42:08.328Z,21.86
2017-11-04T12:44:35.991Z,22.01
2017-11-04T12:47:03.567Z,22.05
2017-11-04T12:49:31.312Z,21.90
2017-11-04T12:51:59.098Z,21.67
2017-11-04T12:54:26.624Z,21.68
2017-11-04T12:56:54.154Z,21.50
2017-11-04T12:59:22.001Z,21.56
2017-11-04T13:01:49.584Z,21.61
2017-11-04T13:04:17.283Z,21.35
2017-11-04T13:06:45.035Z,21.91
2017-11-04T13:09:13.016Z,22.22
2017-11-04T13:11:40.578Z,22.44
2017-11-04T13:14:08.541Z,22.54
2017-11-04T13:16:36.081Z,22.50
2017-11-04T13:19:03.763Z,22.51
2017-11-04T13:21:31.834Z,22.41
2017-11-04T13:23:59.495Z,22.63
2017-11-04T13:26:27.196Z,22.28
2017-11-04T13:28:55.024Z,21.96
2017-11-04T13:31:22.794Z,21.83
2017-11-04T13:33:50.392Z,21.42
2017-11-04T13:36:18.091Z,21.86
2017-11-04T13:38:45.620Z,22.10
2017-11-04T13:41:13.154Z,22.37
2017-11-04T13:43:41.300Z,22.36
2017-11-04T13:46:08.847Z,22.09
2017-11-04T13:48:36.419Z,22.03
2017-11-04T13:51:04.286Z,22.37
2017-11-04T13:53:31.880Z,21.56
2017-11-04T13:55:59.412Z,21.99
2017-11-04T13:58:27.260Z,21.40
2017-11-04T14:00:54.829Z,21.97
2017-11-04T14:03:22.592Z,22.20
2017-11-04T14:05:50.360Z,21.77
2017-11-04T14:08:17.957Z,21.98
2017-11-04T14:10:45.500Z,21.70
2017-11-04T14:13:13.180Z,21.87
2017-11-04T14:15:40.899Z,21.92
2017-11-04T14:18:08.680Z,21.69
2017-11-04T14:20:36.851Z,21.43
2017-11-04T14:23:04.570Z,20.73
2017-11-04T14:25:32.106Z,20.97
2017-11-04T14:28:00.231Z,20.78
2017-11-04T14:30:27.775Z,20.68
2017-11-04T14:32:55.298Z,20.83
2017-11-04T14:35:23.140Z,20.67
2017-11-04T14:37:50.777Z,20.99
2017-11-04T14:40:18.307Z,21.04
2017-11-04T14:42:45.996Z,21.28
2017-11-04T14:45:13.510Z,20.70
2017-11-04T14:47:41.320Z,20.63
2017-11-04T14:50:09.302Z,20.61
2017-11-04T14:52:36.948Z,20.46
2017-11-04T14:55:04.610Z,20.35
2017-11-04T14:57:32.799Z,20.48
2017-11-04T15:00:00.657Z,20.61
2017-11-04T15:02:28.314Z,20.25
2017-11-04T15:04:55.898Z,19.92
2017-11-04T15:07:23.537Z,19.95
2017-11-04T15:09:51.807Z,19.86
2017-11-04T15:12:19.580Z,20.01
2017-11-04T15:14:48.222Z,19.95
2017-11-04T15:17:15.760Z,19.96
2017-11-04T15:19:43.579Z,20.07
2017-11-04T15:22:11.138Z,19.96
2017-11-04T15:24:38.761Z,19.96
2017-11-04T15:27:06.564Z,19.88
2017-11-04T15:29:34.125Z,19.89
2017-11-04T15:32:01.659Z,19.97
2017-11-04T15:34:29.483Z,19.79
2017-11-04T15:36:57.016Z,19.63
2017-11-04T15:39:24.566Z,19.45
2017-11-04T15:41:52.437Z,19.48
2017-11-04T15:44:20.092Z,19.43
2017-11-04T15:46:47.626Z,19.28
2017-11-04T15:49:15.424Z,19.34
2017-11-04T15:51:42.993Z,19.17
2017-11-04T15:54:10.677Z,19.13
2017-11-04T15:56:38.326Z,18.96
2017-11-04T15:59:06.062Z,18.88
2017-11-04T16:01:33.625Z,18.68
2017-11-04T16:04:01.496Z,18.62
2017-11-04T16:06:29.027Z,18.51
2017-11-04T16:08:56.549Z,18.48
2017-11-04T16:11:24.352Z,18.33
2017-11-04T16:13:51.872Z,18.31
2017-11-04T16:16:19.386Z,18.23
2017-11-04T16:18:46.980Z,18.14
2017-11-04T16:21:14.586Z,17.98
2017-11-04T16:23:42.106Z,17.93
2017-11-04T16:26:09.668Z,17.90
2017-11-04T16:28:37.191Z,17.83
2017-11-04T16:31:04.740Z,17.82
2017-11-04T16:33:32.596Z,17.68
2017-11-04T16:36:00.121Z,17.65
2017-11-04T16:38:28.020Z,17.62
2017-11-04T16:40:56.003Z,17.46
2017-11-04T16:43:23.725Z,17.49
2017-11-04T16:45:51.248Z,17.55
2017-11-04T16:48:19.496Z,17.53
2017-11-04T16:50:47.036Z,17.48
2017-11-04T16:53:14.567Z,17.28
2017-11-04T16:55:42.347Z,17.11
2017-11-04T16:58:09.874Z,17.14
2017-11-04T17:00:37.400Z,17.12
2017-11-04T17:03:05.194Z,17.26
2017-11-04T17:05:32.722Z,17.15
2017-11-04T17:08:00.276Z,16.92
2017-11-04T17:10:27.981Z,16.79
2017-11-04T17:12:55.508Z,17.01
2017-11-04T17:15:23.107Z,16.88
2017-11-04T17:17:50.907Z,17.02
2017-11-04T17:20:18.474Z,17.07
2017-11-04T17:22:46.043Z,16.97
2017-11-04T17:25:13.630Z,17.08
2017-11-04T17:27:41.359Z,16.96
2017-11-04T17:30:08.929Z,16.86
2017-11-04T17:32:36.586Z,16.73
2017-11-04T17:35:04.555Z,16.67
2017-11-04T17:37:32.121Z,16.73
2017-11-04T17:39:59.880Z,16.57
2017-11-04T17:42:27.435Z,16.46
2017-11-04T17:44:54.997Z,16.52
2017-11-04T17:47:22.659Z,16.51
2017-11-04T17:49:50.319Z,16.59
2017-11-04T17:52:17.883Z,16.55
2017-11-04T17:54:45.844Z,16.66
2017-11-04T17:57:13.383Z,16.57
2017-11-04T17:59:40.969Z,16.82
2017-11-04T18:02:08.730Z,16.85
2017-11-04T18:04:36.492Z,17.01
2017-11-04T18:07:04.179Z,16.81
2017-11-04T18:09:32.704Z,16.90
2017-11-04T18:12:00.273Z,16.73
2017-11-04T18:14:27.927Z,16.86
2017-11-04T18:16:55.828Z,16.96
2017-11-04T18:19:23.375Z,16.61
2017-11-04T18:21:51.007Z,16.76
2017-11-04T18:24:19.121Z,16.79
2017-11-04T18:26:46.707Z,16.58
2017-11-04T18:29:14.254Z,16.51
2017-11-04T18:31:42.099Z,16.59
2017-11-04T18:34:09.659Z,16.38
2017-11-04T18:36:37.242Z,16.37
2017-11-04T18:39:04.997Z,16.28
2017-11-04T18:41:32.759Z,16.28
2017-11-04T18:44:00.407Z,16.24
2017-11-04T18:46:28.107Z,16.33
2017-11-04T18:48:55.936Z,16.51
2017-11-04T18:51:23.511Z,16.37
2017-11-04T18:53:51.460Z,16.30
2017-11-04T18:56:19.230Z,16.44
2017-11-04T18:58:46.902Z,16.24
2017-11-04T19:01:15.065Z,16.37
2017-11-04T19:03:42.715Z,16.23
2017-11-04T19:06:10.392Z,16.12
2017-11-04T19:08:38.353Z,16.07
2017-11-04T19:11:06.220Z,16.11
2017-11-04T19:13:34.108Z,16.31
2017-11-04T19:16:02.267Z,16.26
2017-11-04T19:18:30.024Z,16.21
2017-11-04T19:20:57.854Z,16.14
2017-11-04T19:23:25.860Z,16.19
2017-11-04T19:25:53.853Z,16.13
2017-11-04T19:28:21.597Z,16.12
2017-11-04T19:30:49.560Z,15.99
2017-11-04T19:33:17.409Z,15.90
2017-11-04T19:35:45.086Z,15.78
2017-11-04T19:38:12.927Z,15.72
2017-11-04T19:40:40.617Z,15.79
2017-11-04T19:43:08.339Z,15.67
2017-11-04T19:45:36.245Z,15.53
2017-11-04T19:48:04.421Z,15.51
2017-11-04T19:50:32.049Z,15.63
2017-11-04T19:52:59.974Z,15.43
2017-11-04T19:55:27.714Z,15.41
2017-11-04T19:57:55.577Z,15.16
2017-11-04T20:00:23.867Z,14.98
2017-11-04T20:02:51.617Z,14.97
2017-11-04T20:05:19.387Z,14.83
2017-11-04T20:07:47.471Z,15.03
2017-11-04T20:10:15.730Z,15.11
2017-11-04T20:12:43.509Z,14.97
2017-11-04T20:15:11.564Z,14.99
2017-11-04T20:17:39.431Z,15.09
2017-11-04T20:20:07.502Z,14.82
2017-11-04T20:22:35.594Z,14.85
2017-11-04T20:25:03.259Z,14.76
2017-11-04T20:27:30.905Z,14.62
2017-11-04T20:29:58.659Z,14.83
2017-11-04T20:32:27.243Z,14.76
2017-11-04T20:34:54.966Z,14.65
2017-11-04T20:37:22.875Z,14.60
2017-11-04T20:39:50.752Z,14.46
2017-11-04T20:42:18.505Z,14.37
2017-11-04T20:44:46.480Z,14.49
2017-11-04T20:47:16.094Z,14.23
2017-11-04T20:49:43.947Z,14.36
2017-11-04T20:52:11.924Z,14.13
2017-11-04T20:54:39.577Z,14.13
2017-11-04T20:57:07.443Z,14.30
2017-11-04T20:59:35.216Z,14.29
2017-11-04T21:02:03.094Z,14.34
2017-11-04T21:04:30.740Z,14.19
2017-11-04T21:06:58.803Z,14.05
2017-11-04T21:09:26.343Z,14.10
2017-11-04T21:11:54.031Z,14.08
2017-11-04T21:14:21.950Z,14.13
2017-11-04T21:16:49.496Z,14.00
2017-11-04T21:19:17.067Z,14.03
2017-11-04T21:21:44.982Z,14.05
2017-11-04T21:24:12.537Z,14.13
2017-11-04T21:26:40.312Z,14.06
2017-11-04T21:29:08.217Z,13.98
2017-11-04T21:31:35.951Z,13.91
2017-11-04T21:34:03.688Z,13.87
2017-11-04T21:36:31.439Z,13.83
2017-11-04T21:38:59.037Z,13.91
2017-11-04T21:41:26.780Z,13.98
2017-11-04T21:43:54.649Z,14.32
2017-11-04T21:46:22.192Z,14.22
2017-11-04T21:48:49.753Z,14.12
2017-11-04T21:51:17.430Z,14.32
2017-11-04T21:53:44.983Z,14.30
2017-11-04T21:56:13.778Z,14.40
2017-11-04T21:58:42.110Z,14.25
2017-11-04T22:01:11.179Z,14.32
2017-11-04T22:03:39.052Z,14.21
2017-11-04T22:06:06.996Z,14.39
2017-11-04T22:08:34.754Z,14.09
2017-11-04T22:11:02.409Z,14.26
2017-11-04T22:13:31.504Z,14.02
2017-11-04T22:15:59.320Z,13.88
2017-11-04T22:18:26.871Z,13.99
2017-11-04T22:20:54.712Z,13.83
2017-11-04T22:23:22.468Z,13.79
2017-11-04T22:25:50.238Z,13.65
2017-11-04T22:28:18.095Z,13.84
2017-11-04T22:30:46.672Z,13.79
2017-11-04T22:33:14.243Z,13.90
2017-11-04T22:35:41.998Z,13.92
2017-11-04T22:38:09.583Z,13.87
2017-11-04T22:40:37.196Z,13.61
2017-11-04T22:43:05.171Z,13.73
2017-11-04T22:45:32.844Z,13.66
2017-11-04T22:48:00.725Z,13.80
2017-11-04T22:50:28.579Z,13.71
2017-11-04T22:52:56.345Z,13.35
2017-11-04T22:55:24.111Z,13.57
2017-11-04T22:57:51.987Z,13.45
2017-11-04T23:00:19.531Z,13.57
2017-11-04T23:02:47.299Z,13.61
2017-11-04T23:05:14.871Z,13.36
2017-11-04T23:07:42.491Z,13.45
2017-11-04T23:10:10.176Z,13.40
2017-11-04T23:12:37.943Z,13.31
2017-11-04T23:15:06.251Z,13.18
2017-11-04T23:17:33.799Z,13.33
2017-11-04T23:20:02.666Z,13.56
2017-11-04T23:22:30.199Z,13.33
2017-11-04T23:24:57.887Z,13.59
2017-11-04T23:27:25.476Z,13.51
2017-11-04T23:30:10.833Z,13.81
2017-11-04T23:32:39.225Z,13.54
2017-11-04T23:35:06.957Z,13.82
2017-11-04T23:37:34.547Z,13.82
2017-11-04T23:40:02.132Z,13.50
2017-11-04T23:42:29.672Z,13.84
2017-11-04T23:44:57.201Z,13.81
2017-11-04T23:47:25.169Z,13.68
2017-11-04T23:49:52.728Z,13.75
2017-11-04T23:52:20.286Z,13.78
2017-11-04T23:54:50.304Z,13.88
2017-11-04T23:57:17.855Z,13.94
2017-11-04T23:59:45.427Z,13.77
